sensor_id;sensor_type;location;lat;lon;timestamp;P1;durP1;ratioP1;P2;durP2;ratioP2
3527;SDS011;1778;47.966;7.854;2022-10-17T00:00:48;2.73;;;2.73;;
3527;SDS011;1778;47.966;7.854;2022-10-17T00:01:50;2.57;;;2.57;;
3527;SDS011;1778;47.966;7.854;2022-10-17T00:02:53;2.83;;;2.83;;
3527;SDS011;1778;47.966;7.854;2022-10-17T00:03:56;2.50;;;2.50;;
3527;SDS011;1778;47.966;7.854;2022-10-17T00:04:58;2.57;;;2.57;;
3527;SDS011;1778;47.966;7.854;2022-10-17T00:06:03;2.60;;;2.60;;
3527;SDS011;1778;47.966;7.854;2022-10-17T00:07:07;2.60;;;2.60;;
3527;SDS011;1778;47.966;7.854;2022-10-17T00:08:09;2.73;;;2.73;;
3527;SDS011;1778;47.966;7.854;2022-10-17T00:09:12;3.03;;;3.03;;
3527;SDS011;1778;47.966;7.854;2022-10-17T00:10:13;3.20;;;3.20;;
3527;SDS011;1778;47.966;7.854;2022-10-17T00:11:17;2.50;;;2.50;;
3527;SDS011;1778;47.966;7.854;2022-10-17T00:12:20;2.80;;;2.80;;
3527;SDS011;1778;47.966;7.854;2022-10-17T00:13:22;2.97;;;2.97;;
3527;SDS011;1778;47.966;7.854;2022-10-17T00:14:24;2.90;;;2.90;;
3527;SDS011;1778;47.966;7.854;2022-10-17T00:15:25;2.50;;;2.50;;
3527;SDS011;1778;47.966;7.854;2022-10-17T00:16:28;2.80;;;2.80;;
3527;SDS011;1778;47.966;7.854;2022-10-17T00:17:32;2.70;;;2.70;;
3527;SDS011;1778;47.966;7.854;2022-10-17T00:18:34;2.80;;;2.80;;
3527;SDS011;1778;47.966;7.854;2022-10-17T00:19:35;2.70;;;2.70;;
3527;SDS011;1778;47.966;7.854;2022-10-17T00:20:37;2.70;;;2.70;;
3527;SDS011;1778;47.966;7.854;2022-10-17T00:21:38;3.03;;;3.03;;
3527;SDS011;1778;47.966;7.854;2022-10-17T00:22:40;2.70;;;2.70;;
3527;SDS011;1778;47.966;7.854;2022-10-17T00:23:41;2.70;;;2.70;;
3527;SDS011;1778;47.966;7.854;2022-10-17T00:24:43;2.50;;;2.50;;
3527;SDS011;1778;47.966;7.854;2022-10-17T00:25:44;2.70;;;2.70;;
3527;SDS011;1778;47.966;7.854;2022-10-17T00:26:45;2.60;;;2.60;;
3527;SDS011;1778;47.966;7.854;2022-10-17T00:27:47;2.63;;;2.63;;
3527;SDS011;1778;47.966;7.854;2022-10-17T00:28:49;3.00;;;3.00;;
3527;SDS011;1778;47.966;7.854;2022-10-17T00:29:51;2.93;;;2.93;;
3527;SDS011;1778;47.966;7.854;2022-10-17T00:31:00;2.83;;;2.83;;
3527;SDS011;1778;47.966;7.854;2022-10-17T00:32:04;2.70;;;2.70;;
3527;SDS011;1778;47.966;7.854;2022-10-17T00:33:05;2.67;;;2.67;;
3527;SDS011;1778;47.966;7.854;2022-10-17T00:34:07;2.60;;;2.60;;
3527;SDS011;1778;47.966;7.854;2022-10-17T00:35:08;2.90;;;2.90;;
3527;SDS011;1778;47.966;7.854;2022-10-17T00:36:13;2.73;;;2.73;;
3527;SDS011;1778;47.966;7.854;2022-10-17T00:37:17;2.50;;;2.50;;
3527;SDS011;1778;47.966;7.854;2022-10-17T00:38:18;2.43;;;2.43;;
3527;SDS011;1778;47.966;7.854;2022-10-17T00:39:20;2.90;;;2.90;;
3527;SDS011;1778;47.966;7.854;2022-10-17T00:40:21;2.90;;;2.90;;
3527;SDS011;1778;47.966;7.854;2022-10-17T00:41:25;3.03;;;3.03;;
3527;SDS011;1778;47.966;7.854;2022-10-17T00:42:29;2.77;;;2.77;;
3527;SDS011;1778;47.966;7.854;2022-10-17T00:46:27;3.00;;;3.00;;
3527;SDS011;1778;47.966;7.854;2022-10-17T00:47:30;2.80;;;2.80;;
3527;SDS011;1778;47.966;7.854;2022-10-17T00:48:35;2.60;;;2.60;;
3527;SDS011;1778;47.966;7.854;2022-10-17T00:49:37;2.80;;;2.80;;
3527;SDS011;1778;47.966;7.854;2022-10-17T00:50:40;2.70;;;2.70;;
3527;SDS011;1778;47.966;7.854;2022-10-17T00:51:57;2.80;;;2.80;;
3527;SDS011;1778;47.966;7.854;2022-10-17T00:53:03;2.40;;;2.40;;
3527;SDS011;1778;47.966;7.854;2022-10-17T00:54:06;2.60;;;2.60;;
3527;SDS011;1778;47.966;7.854;2022-10-17T00:56:17;2.80;;;2.80;;
3527;SDS011;1778;47.966;7.854;2022-10-17T00:57:19;2.83;;;2.83;;
3527;SDS011;1778;47.966;7.854;2022-10-17T00:58:23;2.50;;;2.50;;
3527;SDS011;1778;47.966;7.854;2022-10-17T00:59:24;2.70;;;2.70;;
3527;SDS011;1778;47.966;7.854;2022-10-17T01:00:26;2.70;;;2.70;;
3527;SDS011;1778;47.966;7.854;2022-10-17T01:01:28;2.80;;;2.80;;
3527;SDS011;1778;47.966;7.854;2022-10-17T01:02:38;2.90;;;2.90;;
3527;SDS011;1778;47.966;7.854;2022-10-17T01:03:39;2.60;;;2.60;;
3527;SDS011;1778;47.966;7.854;2022-10-17T01:04:42;2.90;;;2.90;;
3527;SDS011;1778;47.966;7.854;2022-10-17T01:05:46;2.73;;;2.73;;
3527;SDS011;1778;47.966;7.854;2022-10-17T01:06:47;2.80;;;2.80;;
3527;SDS011;1778;47.966;7.854;2022-10-17T01:07:49;2.93;;;2.93;;
3527;SDS011;1778;47.966;7.854;2022-10-17T01:08:53;2.70;;;2.70;;
3527;SDS011;1778;47.966;7.854;2022-10-17T01:09:54;2.60;;;2.60;;
3527;SDS011;1778;47.966;7.854;2022-10-17T01:12:23;3.00;;;3.00;;
3527;SDS011;1778;47.966;7.854;2022-10-17T01:13:32;2.80;;;2.80;;
3527;SDS011;1778;47.966;7.854;2022-10-17T01:15:04;2.83;;;2.83;;
3527;SDS011;1778;47.966;7.854;2022-10-17T01:16:36;2.90;;;2.90;;
3527;SDS011;1778;47.966;7.854;2022-10-17T01:23:56;3.13;;;3.13;;
3527;SDS011;1778;47.966;7.854;2022-10-17T01:32:11;2.70;;;2.70;;
3527;SDS011;1778;47.966;7.854;2022-10-17T01:34:45;3.03;;;3.03;;
3527;SDS011;1778;47.966;7.854;2022-10-17T01:36:23;2.80;;;2.80;;
3527;SDS011;1778;47.966;7.854;2022-10-17T01:37:30;2.80;;;2.80;;
3527;SDS011;1778;47.966;7.854;2022-10-17T01:38:46;2.70;;;2.70;;
3527;SDS011;1778;47.966;7.854;2022-10-17T01:39:55;2.97;;;2.97;;
3527;SDS011;1778;47.966;7.854;2022-10-17T01:41:16;2.40;;;2.40;;
3527;SDS011;1778;47.966;7.854;2022-10-17T01:43:38;2.63;;;2.63;;
3527;SDS011;1778;47.966;7.854;2022-10-17T01:44:46;2.70;;;2.70;;
3527;SDS011;1778;47.966;7.854;2022-10-17T01:47:16;2.83;;;2.83;;
3527;SDS011;1778;47.966;7.854;2022-10-17T01:48:22;2.80;;;2.80;;
3527;SDS011;1778;47.966;7.854;2022-10-17T01:49:27;2.97;;;2.97;;
3527;SDS011;1778;47.966;7.854;2022-10-17T01:50:32;2.83;;;2.83;;
3527;SDS011;1778;47.966;7.854;2022-10-17T01:51:40;3.10;;;3.10;;
3527;SDS011;1778;47.966;7.854;2022-10-17T01:52:44;3.00;;;3.00;;
3527;SDS011;1778;47.966;7.854;2022-10-17T01:54:01;2.80;;;2.80;;
3527;SDS011;1778;47.966;7.854;2022-10-17T01:55:05;2.60;;;2.60;;
3527;SDS011;1778;47.966;7.854;2022-10-17T01:56:08;2.90;;;2.90;;
3527;SDS011;1778;47.966;7.854;2022-10-17T01:57:48;2.73;;;2.73;;
3527;SDS011;1778;47.966;7.854;2022-10-17T01:58:48;2.90;;;2.90;;
3527;SDS011;1778;47.966;7.854;2022-10-17T01:59:53;2.70;;;2.70;;
3527;SDS011;1778;47.966;7.854;2022-10-17T02:00:57;3.00;;;3.00;;
3527;SDS011;1778;47.966;7.854;2022-10-17T02:02:04;3.00;;;3.00;;
3527;SDS011;1778;47.966;7.854;2022-10-17T02:03:08;2.80;;;2.80;;
3527;SDS011;1778;47.966;7.854;2022-10-17T02:04:13;2.83;;;2.83;;
3527;SDS011;1778;47.966;7.854;2022-10-17T02:05:16;2.73;;;2.73;;
3527;SDS011;1778;47.966;7.854;2022-10-17T02:06:21;2.83;;;2.83;;
3527;SDS011;1778;47.966;7.854;2022-10-17T02:07:23;3.10;;;3.10;;
3527;SDS011;1778;47.966;7.854;2022-10-17T02:08:27;2.80;;;2.80;;
3527;SDS011;1778;47.966;7.854;2022-10-17T02:09:40;3.00;;;3.00;;
3527;SDS011;1778;47.966;7.854;2022-10-17T02:12:26;3.07;;;3.07;;
3527;SDS011;1778;47.966;7.854;2022-10-17T02:14:50;2.80;;;2.80;;
3527;SDS011;1778;47.966;7.854;2022-10-17T02:15:58;2.80;;;2.80;;
3527;SDS011;1778;47.966;7.854;2022-10-17T02:18:37;3.00;;;3.00;;
3527;SDS011;1778;47.966;7.854;2022-10-17T02:19:54;3.00;;;3.00;;
3527;SDS011;1778;47.966;7.854;2022-10-17T02:24:24;3.00;;;3.00;;
3527;SDS011;1778;47.966;7.854;2022-10-17T02:25:57;2.87;;;2.87;;
3527;SDS011;1778;47.966;7.854;2022-10-17T02:29:49;3.00;;;3.00;;
3527;SDS011;1778;47.966;7.854;2022-10-17T02:31:15;2.83;;;2.83;;
3527;SDS011;1778;47.966;7.854;2022-10-17T02:32:23;2.90;;;2.90;;
3527;SDS011;1778;47.966;7.854;2022-10-17T02:33:58;2.77;;;2.77;;
3527;SDS011;1778;47.966;7.854;2022-10-17T02:35:07;2.80;;;2.80;;
3527;SDS011;1778;47.966;7.854;2022-10-17T02:36:14;3.27;;;3.27;;
3527;SDS011;1778;47.966;7.854;2022-10-17T02:37:21;3.17;;;3.17;;
3527;SDS011;1778;47.966;7.854;2022-10-17T02:38:27;3.07;;;3.07;;
3527;SDS011;1778;47.966;7.854;2022-10-17T02:39:30;3.03;;;3.03;;
3527;SDS011;1778;47.966;7.854;2022-10-17T02:40:34;2.33;;;2.33;;
3527;SDS011;1778;47.966;7.854;2022-10-17T02:41:37;2.90;;;2.90;;
3527;SDS011;1778;47.966;7.854;2022-10-17T02:42:41;2.50;;;2.50;;
3527;SDS011;1778;47.966;7.854;2022-10-17T02:43:46;2.57;;;2.57;;
3527;SDS011;1778;47.966;7.854;2022-10-17T02:44:49;2.33;;;2.33;;
3527;SDS011;1778;47.966;7.854;2022-10-17T02:45:53;2.80;;;2.80;;
3527;SDS011;1778;47.966;7.854;2022-10-17T02:47:00;2.83;;;2.83;;
3527;SDS011;1778;47.966;7.854;2022-10-17T02:48:12;2.87;;;2.87;;
3527;SDS011;1778;47.966;7.854;2022-10-17T02:49:22;3.30;;;3.30;;
3527;SDS011;1778;47.966;7.854;2022-10-17T02:50:37;3.10;;;3.10;;
3527;SDS011;1778;47.966;7.854;2022-10-17T02:53:10;3.17;;;3.17;;
3527;SDS011;1778;47.966;7.854;2022-10-17T02:56:16;3.13;;;3.13;;
3527;SDS011;1778;47.966;7.854;2022-10-17T02:57:35;2.83;;;2.83;;
3527;SDS011;1778;47.966;7.854;2022-10-17T02:58:53;3.20;;;3.20;;
3527;SDS011;1778;47.966;7.854;2022-10-17T02:59:59;3.00;;;3.00;;
3527;SDS011;1778;47.966;7.854;2022-10-17T03:01:02;2.93;;;2.93;;
3527;SDS011;1778;47.966;7.854;2022-10-17T03:02:05;2.77;;;2.77;;
3527;SDS011;1778;47.966;7.854;2022-10-17T03:04:24;2.90;;;2.90;;
3527;SDS011;1778;47.966;7.854;2022-10-17T03:05:27;3.00;;;3.00;;
3527;SDS011;1778;47.966;7.854;2022-10-17T03:06:29;3.00;;;3.00;;
3527;SDS011;1778;47.966;7.854;2022-10-17T03:07:30;3.10;;;3.10;;
3527;SDS011;1778;47.966;7.854;2022-10-17T03:08:33;3.13;;;3.13;;
3527;SDS011;1778;47.966;7.854;2022-10-17T03:09:35;3.20;;;3.20;;
3527;SDS011;1778;47.966;7.854;2022-10-17T03:10:36;2.87;;;2.87;;
3527;SDS011;1778;47.966;7.854;2022-10-17T03:11:38;3.10;;;3.10;;
3527;SDS011;1778;47.966;7.854;2022-10-17T03:12:41;3.30;;;3.30;;
3527;SDS011;1778;47.966;7.854;2022-10-17T03:13:43;3.00;;;3.00;;
3527;SDS011;1778;47.966;7.854;2022-10-17T03:14:45;3.20;;;3.20;;
3527;SDS011;1778;47.966;7.854;2022-10-17T03:15:46;3.13;;;3.13;;
3527;SDS011;1778;47.966;7.854;2022-10-17T03:16:48;3.13;;;3.13;;
3527;SDS011;1778;47.966;7.854;2022-10-17T03:17:51;3.30;;;3.30;;
3527;SDS011;1778;47.966;7.854;2022-10-17T03:18:52;3.43;;;3.43;;
3527;SDS011;1778;47.966;7.854;2022-10-17T03:19:54;3.43;;;3.43;;
3527;SDS011;1778;47.966;7.854;2022-10-17T03:20:55;3.20;;;3.20;;
3527;SDS011;1778;47.966;7.854;2022-10-17T03:21:57;3.10;;;3.10;;
3527;SDS011;1778;47.966;7.854;2022-10-17T03:22:58;3.03;;;3.03;;
3527;SDS011;1778;47.966;7.854;2022-10-17T03:24:01;3.37;;;3.37;;
3527;SDS011;1778;47.966;7.854;2022-10-17T03:25:03;3.03;;;3.03;;
3527;SDS011;1778;47.966;7.854;2022-10-17T03:26:07;2.80;;;2.80;;
3527;SDS011;1778;47.966;7.854;2022-10-17T03:27:09;3.33;;;3.33;;
3527;SDS011;1778;47.966;7.854;2022-10-17T03:28:11;3.07;;;3.07;;
3527;SDS011;1778;47.966;7.854;2022-10-17T03:29:12;3.20;;;3.20;;
3527;SDS011;1778;47.966;7.854;2022-10-17T03:30:14;3.20;;;3.20;;
3527;SDS011;1778;47.966;7.854;2022-10-17T03:31:16;3.20;;;3.20;;
3527;SDS011;1778;47.966;7.854;2022-10-17T03:32:19;3.43;;;3.43;;
3527;SDS011;1778;47.966;7.854;2022-10-17T03:33:21;3.37;;;3.37;;
3527;SDS011;1778;47.966;7.854;2022-10-17T03:34:22;3.53;;;3.53;;
3527;SDS011;1778;47.966;7.854;2022-10-17T03:35:25;3.50;;;3.50;;
3527;SDS011;1778;47.966;7.854;2022-10-17T03:36:27;3.17;;;3.17;;
3527;SDS011;1778;47.966;7.854;2022-10-17T03:37:29;3.30;;;3.30;;
3527;SDS011;1778;47.966;7.854;2022-10-17T03:38:32;3.47;;;3.47;;
3527;SDS011;1778;47.966;7.854;2022-10-17T03:39:34;3.40;;;3.40;;
3527;SDS011;1778;47.966;7.854;2022-10-17T03:40:36;3.37;;;3.37;;
3527;SDS011;1778;47.966;7.854;2022-10-17T03:41:37;3.57;;;3.57;;
3527;SDS011;1778;47.966;7.854;2022-10-17T03:42:39;3.20;;;3.20;;
3527;SDS011;1778;47.966;7.854;2022-10-17T03:43:41;3.17;;;3.17;;
3527;SDS011;1778;47.966;7.854;2022-10-17T03:44:42;3.33;;;3.33;;
3527;SDS011;1778;47.966;7.854;2022-10-17T03:45:44;3.50;;;3.50;;
3527;SDS011;1778;47.966;7.854;2022-10-17T03:46:45;3.57;;;3.57;;
3527;SDS011;1778;47.966;7.854;2022-10-17T03:47:47;3.47;;;3.47;;
3527;SDS011;1778;47.966;7.854;2022-10-17T03:48:49;3.60;;;3.60;;
3527;SDS011;1778;47.966;7.854;2022-10-17T03:49:50;3.47;;;3.47;;
3527;SDS011;1778;47.966;7.854;2022-10-17T03:51:05;3.30;;;3.30;;
3527;SDS011;1778;47.966;7.854;2022-10-17T03:52:19;3.30;;;3.30;;
3527;SDS011;1778;47.966;7.854;2022-10-17T03:53:21;3.20;;;3.20;;
3527;SDS011;1778;47.966;7.854;2022-10-17T03:54:22;3.13;;;3.13;;
3527;SDS011;1778;47.966;7.854;2022-10-17T03:55:24;3.20;;;3.20;;
3527;SDS011;1778;47.966;7.854;2022-10-17T03:56:26;3.50;;;3.50;;
3527;SDS011;1778;47.966;7.854;2022-10-17T03:57:35;3.40;;;3.40;;
3527;SDS011;1778;47.966;7.854;2022-10-17T03:58:38;3.30;;;3.30;;
3527;SDS011;1778;47.966;7.854;2022-10-17T03:59:40;3.80;;;3.80;;
3527;SDS011;1778;47.966;7.854;2022-10-17T04:00:47;3.40;;;3.40;;
3527;SDS011;1778;47.966;7.854;2022-10-17T04:01:49;3.37;;;3.37;;
3527;SDS011;1778;47.966;7.854;2022-10-17T04:02:51;3.40;;;3.40;;
3527;SDS011;1778;47.966;7.854;2022-10-17T04:03:54;3.60;;;3.60;;
3527;SDS011;1778;47.966;7.854;2022-10-17T04:04:56;3.80;;;3.80;;
3527;SDS011;1778;47.966;7.854;2022-10-17T04:05:58;3.30;;;3.30;;
3527;SDS011;1778;47.966;7.854;2022-10-17T04:07:01;3.60;;;3.60;;
3527;SDS011;1778;47.966;7.854;2022-10-17T04:08:03;3.40;;;3.40;;
3527;SDS011;1778;47.966;7.854;2022-10-17T04:09:27;3.43;;;3.43;;
3527;SDS011;1778;47.966;7.854;2022-10-17T04:10:38;3.40;;;3.40;;
3527;SDS011;1778;47.966;7.854;2022-10-17T04:11:39;3.57;;;3.57;;
3527;SDS011;1778;47.966;7.854;2022-10-17T04:12:41;3.53;;;3.53;;
3527;SDS011;1778;47.966;7.854;2022-10-17T04:13:43;3.17;;;3.17;;
3527;SDS011;1778;47.966;7.854;2022-10-17T04:14:45;3.73;;;3.73;;
3527;SDS011;1778;47.966;7.854;2022-10-17T04:16:00;3.23;;;3.23;;
3527;SDS011;1778;47.966;7.854;2022-10-17T04:17:04;3.90;;;3.90;;
3527;SDS011;1778;47.966;7.854;2022-10-17T04:18:07;3.30;;;3.30;;
3527;SDS011;1778;47.966;7.854;2022-10-17T04:19:09;3.60;;;3.60;;
3527;SDS011;1778;47.966;7.854;2022-10-17T04:20:15;3.50;;;3.50;;
3527;SDS011;1778;47.966;7.854;2022-10-17T04:21:17;3.00;;;3.00;;
3527;SDS011;1778;47.966;7.854;2022-10-17T04:22:19;3.47;;;3.47;;
3527;SDS011;1778;47.966;7.854;2022-10-17T04:23:21;3.83;;;3.83;;
3527;SDS011;1778;47.966;7.854;2022-10-17T04:24:26;4.10;;;4.10;;
3527;SDS011;1778;47.966;7.854;2022-10-17T04:25:38;3.90;;;3.90;;
3527;SDS011;1778;47.966;7.854;2022-10-17T04:26:40;3.70;;;3.70;;
3527;SDS011;1778;47.966;7.854;2022-10-17T04:27:41;3.67;;;3.67;;
3527;SDS011;1778;47.966;7.854;2022-10-17T04:28:43;3.97;;;3.97;;
3527;SDS011;1778;47.966;7.854;2022-10-17T04:29:45;4.00;;;4.00;;
3527;SDS011;1778;47.966;7.854;2022-10-17T04:30:57;3.93;;;3.93;;
3527;SDS011;1778;47.966;7.854;2022-10-17T04:32:08;3.90;;;3.90;;
3527;SDS011;1778;47.966;7.854;2022-10-17T04:33:19;3.77;;;3.77;;
3527;SDS011;1778;47.966;7.854;2022-10-17T04:34:20;3.53;;;3.53;;
3527;SDS011;1778;47.966;7.854;2022-10-17T04:35:22;3.67;;;3.67;;
3527;SDS011;1778;47.966;7.854;2022-10-17T04:36:30;3.67;;;3.67;;
3527;SDS011;1778;47.966;7.854;2022-10-17T04:37:32;4.00;;;4.00;;
3527;SDS011;1778;47.966;7.854;2022-10-17T04:38:39;3.80;;;3.80;;
3527;SDS011;1778;47.966;7.854;2022-10-17T04:39:43;3.63;;;3.63;;
3527;SDS011;1778;47.966;7.854;2022-10-17T04:40:45;3.90;;;3.90;;
3527;SDS011;1778;47.966;7.854;2022-10-17T04:41:46;3.70;;;3.70;;
3527;SDS011;1778;47.966;7.854;2022-10-17T04:42:48;3.70;;;3.70;;
3527;SDS011;1778;47.966;7.854;2022-10-17T04:43:53;3.77;;;3.77;;
3527;SDS011;1778;47.966;7.854;2022-10-17T04:44:54;3.47;;;3.47;;
3527;SDS011;1778;47.966;7.854;2022-10-17T04:45:58;3.90;;;3.90;;
3527;SDS011;1778;47.966;7.854;2022-10-17T04:47:01;3.90;;;3.90;;
3527;SDS011;1778;47.966;7.854;2022-10-17T04:48:03;4.17;;;4.07;;
3527;SDS011;1778;47.966;7.854;2022-10-17T04:49:04;4.00;;;4.00;;
3527;SDS011;1778;47.966;7.854;2022-10-17T04:50:06;4.30;;;4.20;;
3527;SDS011;1778;47.966;7.854;2022-10-17T04:51:10;3.63;;;3.63;;
3527;SDS011;1778;47.966;7.854;2022-10-17T04:52:27;4.30;;;4.20;;
3527;SDS011;1778;47.966;7.854;2022-10-17T04:53:35;3.87;;;3.87;;
3527;SDS011;1778;47.966;7.854;2022-10-17T04:54:38;4.30;;;4.20;;
3527;SDS011;1778;47.966;7.854;2022-10-17T04:55:42;4.50;;;4.40;;
3527;SDS011;1778;47.966;7.854;2022-10-17T04:56:43;4.37;;;4.27;;
3527;SDS011;1778;47.966;7.854;2022-10-17T04:57:46;3.90;;;3.90;;
3527;SDS011;1778;47.966;7.854;2022-10-17T04:58:53;3.90;;;3.90;;
3527;SDS011;1778;47.966;7.854;2022-10-17T04:59:55;3.60;;;3.60;;
3527;SDS011;1778;47.966;7.854;2022-10-17T05:01:20;4.23;;;4.13;;
3527;SDS011;1778;47.966;7.854;2022-10-17T05:02:25;3.77;;;3.77;;
3527;SDS011;1778;47.966;7.854;2022-10-17T05:03:28;4.10;;;4.10;;
3527;SDS011;1778;47.966;7.854;2022-10-17T05:04:29;3.90;;;3.90;;
3527;SDS011;1778;47.966;7.854;2022-10-17T05:05:31;3.97;;;3.97;;
3527;SDS011;1778;47.966;7.854;2022-10-17T05:06:34;3.83;;;3.83;;
3527;SDS011;1778;47.966;7.854;2022-10-17T05:07:56;3.80;;;3.80;;
3527;SDS011;1778;47.966;7.854;2022-10-17T05:09:02;3.93;;;3.93;;
3527;SDS011;1778;47.966;7.854;2022-10-17T05:10:04;4.00;;;4.00;;
3527;SDS011;1778;47.966;7.854;2022-10-17T05:12:16;3.53;;;3.53;;
3527;SDS011;1778;47.966;7.854;2022-10-17T05:13:19;3.97;;;3.97;;
3527;SDS011;1778;47.966;7.854;2022-10-17T05:14:20;3.53;;;3.53;;
3527;SDS011;1778;47.966;7.854;2022-10-17T05:15:22;3.60;;;3.60;;
3527;SDS011;1778;47.966;7.854;2022-10-17T05:16:26;4.30;;;4.20;;
3527;SDS011;1778;47.966;7.854;2022-10-17T05:17:29;3.83;;;3.83;;
3527;SDS011;1778;47.966;7.854;2022-10-17T05:18:30;3.90;;;3.90;;
3527;SDS011;1778;47.966;7.854;2022-10-17T05:19:32;3.97;;;3.97;;
3527;SDS011;1778;47.966;7.854;2022-10-17T05:20:33;4.07;;;4.07;;
3527;SDS011;1778;47.966;7.854;2022-10-17T05:21:35;3.93;;;3.93;;
3527;SDS011;1778;47.966;7.854;2022-10-17T05:22:38;4.50;;;4.40;;
3527;SDS011;1778;47.966;7.854;2022-10-17T05:23:43;4.30;;;4.20;;
3527;SDS011;1778;47.966;7.854;2022-10-17T05:24:45;4.33;;;4.23;;
3527;SDS011;1778;47.966;7.854;2022-10-17T05:25:52;3.77;;;3.77;;
3527;SDS011;1778;47.966;7.854;2022-10-17T05:26:56;4.13;;;4.03;;
3527;SDS011;1778;47.966;7.854;2022-10-17T05:27:58;3.80;;;3.80;;
3527;SDS011;1778;47.966;7.854;2022-10-17T05:29:00;3.77;;;3.77;;
3527;SDS011;1778;47.966;7.854;2022-10-17T05:30:08;3.80;;;3.80;;
3527;SDS011;1778;47.966;7.854;2022-10-17T05:31:11;4.47;;;4.37;;
3527;SDS011;1778;47.966;7.854;2022-10-17T05:32:15;4.23;;;4.13;;
3527;SDS011;1778;47.966;7.854;2022-10-17T05:33:16;4.20;;;4.10;;
3527;SDS011;1778;47.966;7.854;2022-10-17T05:34:18;4.57;;;4.47;;
3527;SDS011;1778;47.966;7.854;2022-10-17T05:35:20;3.90;;;3.90;;
3527;SDS011;1778;47.966;7.854;2022-10-17T05:36:22;4.23;;;4.13;;
3527;SDS011;1778;47.966;7.854;2022-10-17T05:37:24;4.17;;;4.07;;
3527;SDS011;1778;47.966;7.854;2022-10-17T05:38:28;4.50;;;4.40;;
3527;SDS011;1778;47.966;7.854;2022-10-17T05:39:30;4.40;;;4.30;;
3527;SDS011;1778;47.966;7.854;2022-10-17T05:40:32;4.00;;;4.00;;
3527;SDS011;1778;47.966;7.854;2022-10-17T05:41:35;3.50;;;3.50;;
3527;SDS011;1778;47.966;7.854;2022-10-17T05:42:37;4.27;;;4.17;;
3527;SDS011;1778;47.966;7.854;2022-10-17T05:43:41;3.87;;;3.87;;
3527;SDS011;1778;47.966;7.854;2022-10-17T05:44:44;3.97;;;3.97;;
3527;SDS011;1778;47.966;7.854;2022-10-17T05:45:47;3.70;;;3.70;;
3527;SDS011;1778;47.966;7.854;2022-10-17T05:46:52;3.70;;;3.70;;
3527;SDS011;1778;47.966;7.854;2022-10-17T05:47:54;3.77;;;3.77;;
3527;SDS011;1778;47.966;7.854;2022-10-17T05:48:56;3.90;;;3.90;;
3527;SDS011;1778;47.966;7.854;2022-10-17T05:49:57;4.30;;;4.20;;
3527;SDS011;1778;47.966;7.854;2022-10-17T05:51:07;3.60;;;3.60;;
3527;SDS011;1778;47.966;7.854;2022-10-17T05:52:10;4.33;;;4.23;;
3527;SDS011;1778;47.966;7.854;2022-10-17T05:53:28;4.23;;;4.13;;
3527;SDS011;1778;47.966;7.854;2022-10-17T05:54:35;3.87;;;3.87;;
3527;SDS011;1778;47.966;7.854;2022-10-17T05:55:37;4.20;;;4.10;;
3527;SDS011;1778;47.966;7.854;2022-10-17T05:56:38;4.13;;;4.07;;
3527;SDS011;1778;47.966;7.854;2022-10-17T05:57:40;4.47;;;4.37;;
3527;SDS011;1778;47.966;7.854;2022-10-17T05:58:46;4.70;;;4.60;;
3527;SDS011;1778;47.966;7.854;2022-10-17T06:00:15;4.13;;;4.13;;
3527;SDS011;1778;47.966;7.854;2022-10-17T06:01:23;4.30;;;4.20;;
3527;SDS011;1778;47.966;7.854;2022-10-17T06:02:26;4.50;;;4.40;;
3527;SDS011;1778;47.966;7.854;2022-10-17T06:03:29;3.90;;;3.90;;
3527;SDS011;1778;47.966;7.854;2022-10-17T06:04:32;3.80;;;3.80;;
3527;SDS011;1778;47.966;7.854;2022-10-17T06:05:35;4.57;;;4.47;;
3527;SDS011;1778;47.966;7.854;2022-10-17T06:06:37;4.23;;;4.13;;
3527;SDS011;1778;47.966;7.854;2022-10-17T06:07:39;3.83;;;3.83;;
3527;SDS011;1778;47.966;7.854;2022-10-17T06:08:42;4.33;;;4.23;;
3527;SDS011;1778;47.966;7.854;2022-10-17T06:09:47;4.10;;;4.10;;
3527;SDS011;1778;47.966;7.854;2022-10-17T06:10:49;4.43;;;4.33;;
3527;SDS011;1778;47.966;7.854;2022-10-17T06:11:51;4.03;;;4.00;;
3527;SDS011;1778;47.966;7.854;2022-10-17T06:12:53;4.30;;;4.20;;
3527;SDS011;1778;47.966;7.854;2022-10-17T06:13:54;4.20;;;4.10;;
3527;SDS011;1778;47.966;7.854;2022-10-17T06:14:58;4.23;;;4.17;;
3527;SDS011;1778;47.966;7.854;2022-10-17T06:16:00;3.80;;;3.80;;
3527;SDS011;1778;47.966;7.854;2022-10-17T06:17:01;3.60;;;3.60;;
3527;SDS011;1778;47.966;7.854;2022-10-17T06:18:03;3.87;;;3.87;;
3527;SDS011;1778;47.966;7.854;2022-10-17T06:19:05;3.63;;;3.63;;
3527;SDS011;1778;47.966;7.854;2022-10-17T06:20:07;3.60;;;3.60;;
3527;SDS011;1778;47.966;7.854;2022-10-17T06:21:09;3.83;;;3.83;;
3527;SDS011;1778;47.966;7.854;2022-10-17T06:22:16;3.20;;;3.20;;
3527;SDS011;1778;47.966;7.854;2022-10-17T06:23:19;3.60;;;3.60;;
3527;SDS011;1778;47.966;7.854;2022-10-17T06:24:35;3.67;;;3.67;;
3527;SDS011;1778;47.966;7.854;2022-10-17T06:25:38;3.73;;;3.73;;
3527;SDS011;1778;47.966;7.854;2022-10-17T06:26:39;3.40;;;3.40;;
3527;SDS011;1778;47.966;7.854;2022-10-17T06:27:42;3.63;;;3.63;;
3527;SDS011;1778;47.966;7.854;2022-10-17T06:28:45;3.67;;;3.67;;
3527;SDS011;1778;47.966;7.854;2022-10-17T06:29:46;3.67;;;3.67;;
3527;SDS011;1778;47.966;7.854;2022-10-17T06:30:48;3.77;;;3.77;;
3527;SDS011;1778;47.966;7.854;2022-10-17T06:31:50;3.80;;;3.80;;
3527;SDS011;1778;47.966;7.854;2022-10-17T06:32:52;3.73;;;3.73;;
3527;SDS011;1778;47.966;7.854;2022-10-17T06:33:54;3.60;;;3.60;;
3527;SDS011;1778;47.966;7.854;2022-10-17T06:34:56;3.63;;;3.63;;
3527;SDS011;1778;47.966;7.854;2022-10-17T06:35:57;3.47;;;3.47;;
3527;SDS011;1778;47.966;7.854;2022-10-17T06:36:59;3.43;;;3.43;;
3527;SDS011;1778;47.966;7.854;2022-10-17T06:38:02;3.80;;;3.80;;
3527;SDS011;1778;47.966;7.854;2022-10-17T06:39:05;3.97;;;3.97;;
3527;SDS011;1778;47.966;7.854;2022-10-17T06:40:30;3.60;;;3.60;;
3527;SDS011;1778;47.966;7.854;2022-10-17T06:41:32;3.63;;;3.63;;
3527;SDS011;1778;47.966;7.854;2022-10-17T06:42:38;3.60;;;3.60;;
3527;SDS011;1778;47.966;7.854;2022-10-17T06:43:42;3.70;;;3.70;;
3527;SDS011;1778;47.966;7.854;2022-10-17T06:45:04;3.50;;;3.50;;
3527;SDS011;1778;47.966;7.854;2022-10-17T06:46:36;3.97;;;3.97;;
3527;SDS011;1778;47.966;7.854;2022-10-17T06:47:41;3.33;;;3.33;;
3527;SDS011;1778;47.966;7.854;2022-10-17T06:49:21;3.63;;;3.63;;
3527;SDS011;1778;47.966;7.854;2022-10-17T06:50:25;3.57;;;3.57;;
3527;SDS011;1778;47.966;7.854;2022-10-17T06:51:43;3.67;;;3.67;;
3527;SDS011;1778;47.966;7.854;2022-10-17T06:52:49;3.80;;;3.80;;
3527;SDS011;1778;47.966;7.854;2022-10-17T06:54:10;3.70;;;3.70;;
3527;SDS011;1778;47.966;7.854;2022-10-17T06:55:30;3.67;;;3.67;;
3527;SDS011;1778;47.966;7.854;2022-10-17T06:56:55;3.30;;;3.30;;
3527;SDS011;1778;47.966;7.854;2022-10-17T06:58:15;3.50;;;3.50;;
3527;SDS011;1778;47.966;7.854;2022-10-17T06:59:41;3.40;;;3.40;;
3527;SDS011;1778;47.966;7.854;2022-10-17T07:00:47;3.40;;;3.40;;
3527;SDS011;1778;47.966;7.854;2022-10-17T07:01:50;3.37;;;3.37;;
3527;SDS011;1778;47.966;7.854;2022-10-17T07:02:51;3.40;;;3.40;;
3527;SDS011;1778;47.966;7.854;2022-10-17T07:03:53;3.00;;;3.00;;
3527;SDS011;1778;47.966;7.854;2022-10-17T07:04:55;3.00;;;3.00;;
3527;SDS011;1778;47.966;7.854;2022-10-17T07:05:57;3.43;;;3.43;;
3527;SDS011;1778;47.966;7.854;2022-10-17T07:06:58;3.10;;;3.10;;
3527;SDS011;1778;47.966;7.854;2022-10-17T07:08:03;3.37;;;3.37;;
3527;SDS011;1778;47.966;7.854;2022-10-17T07:09:05;3.70;;;3.70;;
3527;SDS011;1778;47.966;7.854;2022-10-17T07:10:09;3.40;;;3.40;;
3527;SDS011;1778;47.966;7.854;2022-10-17T07:11:13;3.07;;;3.07;;
3527;SDS011;1778;47.966;7.854;2022-10-17T07:12:16;3.30;;;3.30;;
3527;SDS011;1778;47.966;7.854;2022-10-17T07:13:18;3.60;;;3.60;;
3527;SDS011;1778;47.966;7.854;2022-10-17T07:14:20;3.67;;;3.67;;
3527;SDS011;1778;47.966;7.854;2022-10-17T07:15:22;3.40;;;3.40;;
3527;SDS011;1778;47.966;7.854;2022-10-17T07:16:23;3.53;;;3.53;;
3527;SDS011;1778;47.966;7.854;2022-10-17T07:17:33;3.30;;;3.30;;
3527;SDS011;1778;47.966;7.854;2022-10-17T07:18:35;3.13;;;3.13;;
3527;SDS011;1778;47.966;7.854;2022-10-17T07:19:37;3.30;;;3.30;;
3527;SDS011;1778;47.966;7.854;2022-10-17T07:20:40;3.50;;;3.50;;
3527;SDS011;1778;47.966;7.854;2022-10-17T07:21:42;3.27;;;3.27;;
3527;SDS011;1778;47.966;7.854;2022-10-17T07:22:44;3.20;;;3.20;;
3527;SDS011;1778;47.966;7.854;2022-10-17T07:23:46;3.30;;;3.30;;
3527;SDS011;1778;47.966;7.854;2022-10-17T07:24:48;2.93;;;2.93;;